sensor_id;sensor_type;location;lat;lon;timestamp;temperature;humidity
60027;DHT22;45891;53.006;6.512;2023-09-19T00:01:43;14.10;99.90
60027;DHT22;45891;53.006;6.512;2023-09-19T00:04:12;14.10;99.90
60027;DHT22;45891;53.006;6.512;2023-09-19T00:06:39;14.00;99.90
60027;DHT22;45891;53.006;6.512;2023-09-19T00:09:05;14.00;99.90
60027;DHT22;45891;53.006;6.512;2023-09-19T00:11:37;14.00;99.90
60027;DHT22;45891;53.006;6.512;2023-09-19T00:14:04;13.90;99.90
60027;DHT22;45891;53.006;6.512;2023-09-19T00:16:34;13.90;99.90
60027;DHT22;45891;53.006;6.512;2023-09-19T00:19:02;13.90;99.90
60027;DHT22;45891;53.006;6.512;2023-09-19T00:21:31;13.80;99.90
60027;DHT22;45891;53.006;6.512;2023-09-19T00:23:57;13.80;99.90
60027;DHT22;45891;53.006;6.512;2023-09-19T00:26:23;13.80;99.90
60027;DHT22;45891;53.006;6.512;2023-09-19T00:28:52;13.70;99.90
60027;DHT22;45891;53.006;6.512;2023-09-19T00:31:18;13.70;99.90
60027;DHT22;45891;53.006;6.512;2023-09-19T00:33:44;13.70;99.90
60027;DHT22;45891;53.006;6.512;2023-09-19T00:36:10;13.70;99.90
60027;DHT22;45891;53.006;6.512;2023-09-19T00:38:36;13.60;99.90
60027;DHT22;45891;53.006;6.512;2023-09-19T00:41:02;13.60;99.90
60027;DHT22;45891;53.006;6.512;2023-09-19T00:43:29;13.60;99.90
60027;DHT22;45891;53.006;6.512;2023-09-19T00:45:56;13.60;99.90
60027;DHT22;45891;53.006;6.512;2023-09-19T00:48:23;13.60;99.90
60027;DHT22;45891;53.006;6.512;2023-09-19T00:50:51;13.60;99.90
60027;DHT22;45891;53.006;6.512;2023-09-19T00:53:21;13.60;99.90
60027;DHT22;45891;53.006;6.512;2023-09-19T00:55:50;13.60;99.90
60027;DHT22;45891;53.006;6.512;2023-09-19T00:58:18;13.60;99.90
60027;DHT22;45891;53.006;6.512;2023-09-19T01:00:44;13.60;99.90
60027;DHT22;45891;53.006;6.512;2023-09-19T01:03:11;13.50;99.90
60027;DHT22;45891;53.006;6.512;2023-09-19T01:05:39;13.50;99.90
60027;DHT22;45891;53.006;6.512;2023-09-19T01:08:05;13.50;99.90
60027;DHT22;45891;53.006;6.512;2023-09-19T01:10:33;13.50;99.90
60027;DHT22;45891;53.006;6.512;2023-09-19T01:19:26;13.40;99.90
60027;DHT22;45891;53.006;6.512;2023-09-19T01:22:18;13.40;99.90
60027;DHT22;45891;53.006;6.512;2023-09-19T01:28:20;13.40;99.90
60027;DHT22;45891;53.006;6.512;2023-09-19T01:30:48;13.40;99.90
60027;DHT22;45891;53.006;6.512;2023-09-19T01:33:20;13.30;99.90
60027;DHT22;45891;53.006;6.512;2023-09-19T01:35:46;13.30;99.90
60027;DHT22;45891;53.006;6.512;2023-09-19T01:38:13;13.30;99.90
60027;DHT22;45891;53.006;6.512;2023-09-19T01:40:44;13.20;99.90
60027;DHT22;45891;53.006;6.512;2023-09-19T01:43:27;13.20;99.90
60027;DHT22;45891;53.006;6.512;2023-09-19T01:46:14;13.20;99.90
60027;DHT22;45891;53.006;6.512;2023-09-19T01:49:15;13.20;99.90
60027;DHT22;45891;53.006;6.512;2023-09-19T01:52:00;13.20;99.90
60027;DHT22;45891;53.006;6.512;2023-09-19T01:54:33;13.20;99.90
60027;DHT22;45891;53.006;6.512;2023-09-19T02:00:00;13.10;99.90
60027;DHT22;45891;53.006;6.512;2023-09-19T02:02:39;13.10;99.90
60027;DHT22;45891;53.006;6.512;2023-09-19T02:05:06;13.10;99.90
60027;DHT22;45891;53.006;6.512;2023-09-19T02:07:32;13.10;99.90
60027;DHT22;45891;53.006;6.512;2023-09-19T02:09:58;13.00;99.90
60027;DHT22;45891;53.006;6.512;2023-09-19T02:12:27;13.00;99.90
60027;DHT22;45891;53.006;6.512;2023-09-19T02:14:53;13.00;99.90
60027;DHT22;45891;53.006;6.512;2023-09-19T02:17:19;13.00;99.90
60027;DHT22;45891;53.006;6.512;2023-09-19T02:19:45;13.00;99.90
60027;DHT22;45891;53.006;6.512;2023-09-19T02:22:11;12.90;99.90
60027;DHT22;45891;53.006;6.512;2023-09-19T02:24:37;12.90;99.90
60027;DHT22;45891;53.006;6.512;2023-09-19T02:27:04;12.80;99.90
60027;DHT22;45891;53.006;6.512;2023-09-19T02:29:31;12.80;99.90
60027;DHT22;45891;53.006;6.512;2023-09-19T02:31:58;12.80;99.90
60027;DHT22;45891;53.006;6.512;2023-09-19T02:34:24;12.80;99.90
60027;DHT22;45891;53.006;6.512;2023-09-19T02:36:51;12.80;99.90
60027;DHT22;45891;53.006;6.512;2023-09-19T02:39:19;12.80;99.90
60027;DHT22;45891;53.006;6.512;2023-09-19T02:41:45;12.80;99.90
60027;DHT22;45891;53.006;6.512;2023-09-19T02:44:12;12.80;99.90
60027;DHT22;45891;53.006;6.512;2023-09-19T02:46:38;12.80;99.90
60027;DHT22;45891;53.006;6.512;2023-09-19T02:49:04;12.80;99.90
60027;DHT22;45891;53.006;6.512;2023-09-19T02:51:33;12.70;99.90
60027;DHT22;45891;53.006;6.512;2023-09-19T02:54:00;12.80;99.90
60027;DHT22;45891;53.006;6.512;2023-09-19T02:56:26;12.80;99.90
60027;DHT22;45891;53.006;6.512;2023-09-19T02:58:52;12.70;99.90
60027;DHT22;45891;53.006;6.512;2023-09-19T03:01:19;12.70;99.90
60027;DHT22;45891;53.006;6.512;2023-09-19T03:03:45;12.70;99.90
60027;DHT22;45891;53.006;6.512;2023-09-19T03:06:11;12.80;99.90
60027;DHT22;45891;53.006;6.512;2023-09-19T03:08:39;12.80;99.90
60027;DHT22;45891;53.006;6.512;2023-09-19T03:11:06;12.80;99.90
60027;DHT22;45891;53.006;6.512;2023-09-19T03:13:33;12.80;99.90
60027;DHT22;45891;53.006;6.512;2023-09-19T03:15:59;12.90;99.90
60027;DHT22;45891;53.006;6.512;2023-09-19T03:18:25;12.90;99.90
60027;DHT22;45891;53.006;6.512;2023-09-19T03:20:53;12.90;99.90
60027;DHT22;45891;53.006;6.512;2023-09-19T03:23:20;13.00;99.90
60027;DHT22;45891;53.006;6.512;2023-09-19T03:25:47;13.00;99.90
60027;DHT22;45891;53.006;6.512;2023-09-19T03:28:13;13.00;99.90
60027;DHT22;45891;53.006;6.512;2023-09-19T03:30:41;13.00;99.90
60027;DHT22;45891;53.006;6.512;2023-09-19T03:33:07;13.10;99.90
60027;DHT22;45891;53.006;6.512;2023-09-19T03:35:34;13.10;99.90
60027;DHT22;45891;53.006;6.512;2023-09-19T03:38:00;13.10;99.90
60027;DHT22;45891;53.006;6.512;2023-09-19T03:40:26;13.00;99.90
60027;DHT22;45891;53.006;6.512;2023-09-19T03:42:52;13.10;99.90
60027;DHT22;45891;53.006;6.512;2023-09-19T03:45:18;13.10;99.90
60027;DHT22;45891;53.006;6.512;2023-09-19T03:47:44;13.10;99.90
60027;DHT22;45891;53.006;6.512;2023-09-19T03:50:13;13.10;99.90
60027;DHT22;45891;53.006;6.512;2023-09-19T03:52:44;13.10;99.90
60027;DHT22;45891;53.006;6.512;2023-09-19T03:55:10;13.10;99.90
60027;DHT22;45891;53.006;6.512;2023-09-19T03:57:37;13.00;99.90
60027;DHT22;45891;53.006;6.512;2023-09-19T04:00:04;13.00;99.90
60027;DHT22;45891;53.006;6.512;2023-09-19T04:02:31;13.10;99.90
60027;DHT22;45891;53.006;6.512;2023-09-19T04:04:59;13.10;99.90
60027;DHT22;45891;53.006;6.512;2023-09-19T04:07:25;13.10;99.90
60027;DHT22;45891;53.006;6.512;2023-09-19T04:09:54;13.10;99.90
60027;DHT22;45891;53.006;6.512;2023-09-19T04:12:21;13.10;99.90
60027;DHT22;45891;53.006;6.512;2023-09-19T04:14:47;13.20;99.90
60027;DHT22;45891;53.006;6.512;2023-09-19T04:17:13;13.20;99.90
60027;DHT22;45891;53.006;6.512;2023-09-19T04:19:39;13.20;99.90
60027;DHT22;45891;53.006;6.512;2023-09-19T04:22:06;13.30;99.90
60027;DHT22;45891;53.006;6.512;2023-09-19T04:24:33;13.20;99.90
60027;DHT22;45891;53.006;6.512;2023-09-19T04:26:59;13.30;99.90
60027;DHT22;45891;53.006;6.512;2023-09-19T04:29:25;13.30;99.90
60027;DHT22;45891;53.006;6.512;2023-09-19T04:31:56;13.30;99.90
60027;DHT22;45891;53.006;6.512;2023-09-19T04:34:24;13.30;99.90
60027;DHT22;45891;53.006;6.512;2023-09-19T04:36:51;13.20;99.90
60027;DHT22;45891;53.006;6.512;2023-09-19T04:39:18;13.20;99.90
60027;DHT22;45891;53.006;6.512;2023-09-19T04:41:44;13.20;99.90
60027;DHT22;45891;53.006;6.512;2023-09-19T04:44:13;13.20;99.90
60027;DHT22;45891;53.006;6.512;2023-09-19T04:46:40;13.20;99.90
60027;DHT22;45891;53.006;6.512;2023-09-19T04:49:06;13.20;99.90
60027;DHT22;45891;53.006;6.512;2023-09-19T04:51:32;13.20;99.90
60027;DHT22;45891;53.006;6.512;2023-09-19T04:54:00;13.20;99.90
60027;DHT22;45891;53.006;6.512;2023-09-19T04:56:26;13.20;99.90
60027;DHT22;45891;53.006;6.512;2023-09-19T04:58:54;13.20;99.90
60027;DHT22;45891;53.006;6.512;2023-09-19T05:01:20;13.10;99.90
60027;DHT22;45891;53.006;6.512;2023-09-19T05:03:49;13.10;99.90
60027;DHT22;45891;53.006;6.512;2023-09-19T05:06:19;13.10;99.90
60027;DHT22;45891;53.006;6.512;2023-09-19T05:08:49;13.10;99.90
60027;DHT22;45891;53.006;6.512;2023-09-19T05:11:20;13.10;99.90
60027;DHT22;45891;53.006;6.512;2023-09-19T05:13:47;13.10;99.90
60027;DHT22;45891;53.006;6.512;2023-09-19T05:16:16;13.00;99.90
60027;DHT22;45891;53.006;6.512;2023-09-19T05:18:42;13.00;99.90
60027;DHT22;45891;53.006;6.512;2023-09-19T05:21:08;13.10;99.90
60027;DHT22;45891;53.006;6.512;2023-09-19T05:23:34;13.00;99.90
60027;DHT22;45891;53.006;6.512;2023-09-19T05:26:00;13.00;99.90
60027;DHT22;45891;53.006;6.512;2023-09-19T05:28:27;13.00;99.90
60027;DHT22;45891;53.006;6.512;2023-09-19T05:30:53;13.10;99.90
60027;DHT22;45891;53.006;6.512;2023-09-19T05:33:20;13.10;99.90
60027;DHT22;45891;53.006;6.512;2023-09-19T05:35:48;13.10;99.90
60027;DHT22;45891;53.006;6.512;2023-09-19T05:38:14;13.20;99.90
60027;DHT22;45891;53.006;6.512;2023-09-19T05:40:41;13.10;99.90
60027;DHT22;45891;53.006;6.512;2023-09-19T05:43:11;13.20;99.90
60027;DHT22;45891;53.006;6.512;2023-09-19T05:45:37;13.20;99.90
60027;DHT22;45891;53.006;6.512;2023-09-19T05:48:14;13.20;99.90
60027;DHT22;45891;53.006;6.512;2023-09-19T05:50:42;13.20;99.90
60027;DHT22;45891;53.006;6.512;2023-09-19T05:53:08;13.20;99.90
60027;DHT22;45891;53.006;6.512;2023-09-19T05:55:37;13.20;99.90
60027;DHT22;45891;53.006;6.512;2023-09-19T05:58:04;13.20;99.90
60027;DHT22;45891;53.006;6.512;2023-09-19T06:00:30;13.20;99.90
60027;DHT22;45891;53.006;6.512;2023-09-19T06:02:58;13.20;99.90
60027;DHT22;45891;53.006;6.512;2023-09-19T06:05:26;13.30;99.90
60027;DHT22;45891;53.006;6.512;2023-09-19T06:07:57;13.30;99.90
60027;DHT22;45891;53.006;6.512;2023-09-19T06:10:27;13.30;99.90
60027;DHT22;45891;53.006;6.512;2023-09-19T06:12:54;13.30;99.90
60027;DHT22;45891;53.006;6.512;2023-09-19T06:15:21;13.30;99.90
60027;DHT22;45891;53.006;6.512;2023-09-19T06:17:52;13.30;99.90
60027;DHT22;45891;53.006;6.512;2023-09-19T06:20:21;13.30;99.90
60027;DHT22;45891;53.006;6.512;2023-09-19T06:22:49;13.40;99.90
60027;DHT22;45891;53.006;6.512;2023-09-19T06:25:16;13.40;99.90
60027;DHT22;45891;53.006;6.512;2023-09-19T06:27:49;13.50;99.90
60027;DHT22;45891;53.006;6.512;2023-09-19T06:30:18;13.50;99.90
60027;DHT22;45891;53.006;6.512;2023-09-19T06:32:44;13.60;99.90
60027;DHT22;45891;53.006;6.512;2023-09-19T06:35:15;13.60;99.90
60027;DHT22;45891;53.006;6.512;2023-09-19T06:37:42;13.60;99.90
60027;DHT22;45891;53.006;6.512;2023-09-19T06:40:13;13.60;99.90
60027;DHT22;45891;53.006;6.512;2023-09-19T06:45:08;13.80;99.90
60027;DHT22;45891;53.006;6.512;2023-09-19T06:47:35;13.90;99.90
60027;DHT22;45891;53.006;6.512;2023-09-19T06:50:01;13.80;99.90
60027;DHT22;45891;53.006;6.512;2023-09-19T06:52:28;13.80;99.90
60027;DHT22;45891;53.006;6.512;2023-09-19T06:54:54;13.80;99.90
60027;DHT22;45891;53.006;6.512;2023-09-19T06:57:20;13.90;99.90
60027;DHT22;45891;53.006;6.512;2023-09-19T06:59:47;13.90;99.90
60027;DHT22;45891;53.006;6.512;2023-09-19T07:02:13;13.90;99.90
60027;DHT22;45891;53.006;6.512;2023-09-19T07:04:39;13.80;99.90
60027;DHT22;45891;53.006;6.512;2023-09-19T07:07:06;13.80;99.90
60027;DHT22;45891;53.006;6.512;2023-09-19T07:09:34;13.80;99.90
60027;DHT22;45891;53.006;6.512;2023-09-19T07:12:01;13.90;99.90
60027;DHT22;45891;53.006;6.512;2023-09-19T07:14:27;13.90;99.90
60027;DHT22;45891;53.006;6.512;2023-09-19T07:16:54;14.00;99.90
60027;DHT22;45891;53.006;6.512;2023-09-19T07:19:20;14.10;99.90
60027;DHT22;45891;53.006;6.512;2023-09-19T07:21:47;14.20;99.90
60027;DHT22;45891;53.006;6.512;2023-09-19T07:24:16;14.30;99.90
60027;DHT22;45891;53.006;6.512;2023-09-19T07:26:42;14.40;99.90
60027;DHT22;45891;53.006;6.512;2023-09-19T07:29:08;14.40;99.90
60027;DHT22;45891;53.006;6.512;2023-09-19T07:31:34;14.40;99.90
60027;DHT22;45891;53.006;6.512;2023-09-19T07:34:00;14.30;99.90
60027;DHT22;45891;53.006;6.512;2023-09-19T07:36:26;14.40;99.90
60027;DHT22;45891;53.006;6.512;2023-09-19T07:38:55;14.60;99.90
60027;DHT22;45891;53.006;6.512;2023-09-19T07:41:24;14.90;99.90
60027;DHT22;45891;53.006;6.512;2023-09-19T07:43:50;15.20;99.90
60027;DHT22;45891;53.006;6.512;2023-09-19T07:46:16;15.10;99.90
60027;DHT22;45891;53.006;6.512;2023-09-19T07:48:42;15.00;99.90
60027;DHT22;45891;53.006;6.512;2023-09-19T07:51:13;15.20;99.90
60027;DHT22;45891;53.006;6.512;2023-09-19T07:53:42;15.60;99.90
60027;DHT22;45891;53.006;6.512;2023-09-19T07:56:09;15.90;99.90
60027;DHT22;45891;53.006;6.512;2023-09-19T07:58:38;16.20;99.90
60027;DHT22;45891;53.006;6.512;2023-09-19T08:01:07;15.90;99.90
60027;DHT22;45891;53.006;6.512;2023-09-19T08:03:34;15.80;99.90
60027;DHT22;45891;53.006;6.512;2023-09-19T08:06:01;15.50;99.90
60027;DHT22;45891;53.006;6.512;2023-09-19T08:08:27;15.40;99.90
60027;DHT22;45891;53.006;6.512;2023-09-19T08:10:54;15.20;99.90
60027;DHT22;45891;53.006;6.512;2023-09-19T08:13:23;15.50;99.90
60027;DHT22;45891;53.006;6.512;2023-09-19T08:15:49;15.70;99.90
60027;DHT22;45891;53.006;6.512;2023-09-19T08:18:17;15.80;99.90
60027;DHT22;45891;53.006;6.512;2023-09-19T08:20:48;16.20;99.90
60027;DHT22;45891;53.006;6.512;2023-09-19T08:23:15;16.40;99.90
60027;DHT22;45891;53.006;6.512;2023-09-19T08:25:42;16.50;99.90
60027;DHT22;45891;53.006;6.512;2023-09-19T08:28:08;16.60;99.90
60027;DHT22;45891;53.006;6.512;2023-09-19T08:30:37;16.50;99.90
60027;DHT22;45891;53.006;6.512;2023-09-19T08:33:06;16.70;99.90
60027;DHT22;45891;53.006;6.512;2023-09-19T08:35:33;16.70;99.90
60027;DHT22;45891;53.006;6.512;2023-09-19T08:37:59;16.70;99.90
60027;DHT22;45891;53.006;6.512;2023-09-19T08:40:30;16.70;99.90
60027;DHT22;45891;53.006;6.512;2023-09-19T08:42:59;16.70;99.90
60027;DHT22;45891;53.006;6.512;2023-09-19T08:45:27;17.00;99.90
60027;DHT22;45891;53.006;6.512;2023-09-19T08:50:42;17.10;99.90
60027;DHT22;45891;53.006;6.512;2023-09-19T08:53:26;17.20;99.90
60027;DHT22;45891;53.006;6.512;2023-09-19T08:55:53;17.10;99.90
60027;DHT22;45891;53.006;6.512;2023-09-19T08:58:30;17.60;99.90
60027;DHT22;45891;53.006;6.512;2023-09-19T09:00:58;17.60;99.90
60027;DHT22;45891;53.006;6.512;2023-09-19T09:03:26;17.40;99.90
60027;DHT22;45891;53.006;6.512;2023-09-19T09:05:52;17.40;99.90
60027;DHT22;45891;53.006;6.512;2023-09-19T09:08:19;17.60;99.90
60027;DHT22;45891;53.006;6.512;2023-09-19T09:10:47;17.50;99.90
60027;DHT22;45891;53.006;6.512;2023-09-19T09:13:14;17.50;99.90
60027;DHT22;45891;53.006;6.512;2023-09-19T09:15:41;17.30;99.90
60027;DHT22;45891;53.006;6.512;2023-09-19T09:18:08;17.50;99.90
60027;DHT22;45891;53.006;6.512;2023-09-19T09:20:34;17.80;99.90
60027;DHT22;45891;53.006;6.512;2023-09-19T09:23:01;18.00;99.90
60027;DHT22;45891;53.006;6.512;2023-09-19T09:25:48;18.20;99.90
60027;DHT22;45891;53.006;6.512;2023-09-19T09:28:25;18.60;99.90
60027;DHT22;45891;53.006;6.512;2023-09-19T09:30:51;18.50;99.90
60027;DHT22;45891;53.006;6.512;2023-09-19T09:33:17;18.20;99.90
60027;DHT22;45891;53.006;6.512;2023-09-19T09:35:52;18.30;99.90
60027;DHT22;45891;53.006;6.512;2023-09-19T09:38:26;18.50;99.90
60027;DHT22;45891;53.006;6.512;2023-09-19T09:40:59;18.70;99.90
60027;DHT22;45891;53.006;6.512;2023-09-19T09:43:37;18.80;99.90
60027;DHT22;45891;53.006;6.512;2023-09-19T09:49:01;18.70;99.90
60027;DHT22;45891;53.006;6.512;2023-09-19T09:54:34;18.80;99.90
60027;DHT22;45891;53.006;6.512;2023-09-19T09:57:09;18.90;99.90
60027;DHT22;45891;53.006;6.512;2023-09-19T09:59:52;19.10;99.90
60027;DHT22;45891;53.006;6.512;2023-09-19T10:02:35;19.30;99.90
60027;DHT22;45891;53.006;6.512;2023-09-19T10:05:20;18.80;99.90
60027;DHT22;45891;53.006;6.512;2023-09-19T10:07:47;19.20;99.90
60027;DHT22;45891;53.006;6.512;2023-09-19T10:10:32;19.10;99.90
60027;DHT22;45891;53.006;6.512;2023-09-19T10:13:13;19.30;99.90
60027;DHT22;45891;53.006;6.512;2023-09-19T10:15:46;19.10;99.90
60027;DHT22;45891;53.006;6.512;2023-09-19T10:18:23;19.40;99.90
60027;DHT22;45891;53.006;6.512;2023-09-19T10:20:50;19.70;99.90
60027;DHT22;45891;53.006;6.512;2023-09-19T10:23:20;20.10;99.90
60027;DHT22;45891;53.006;6.512;2023-09-19T10:25:50;19.80;99.70
60027;DHT22;45891;53.006;6.512;2023-09-19T10:28:18;19.30;99.90
60027;DHT22;45891;53.006;6.512;2023-09-19T10:30:49;19.40;99.90
60027;DHT22;45891;53.006;6.512;2023-09-19T10:33:23;19.10;99.90
60027;DHT22;45891;53.006;6.512;2023-09-19T10:35:53;18.80;99.90
60027;DHT22;45891;53.006;6.512;2023-09-19T10:38:24;18.90;99.90
60027;DHT22;45891;53.006;6.512;2023-09-19T10:40:55;19.00;99.90
60027;DHT22;45891;53.006;6.512;2023-09-19T10:43:29;18.80;99.90
60027;DHT22;45891;53.006;6.512;2023-09-19T10:46:01;18.50;99.90
60027;DHT22;45891;53.006;6.512;2023-09-19T10:48:29;18.70;99.90
60027;DHT22;45891;53.006;6.512;2023-09-19T10:56:25;18.90;99.90
60027;DHT22;45891;53.006;6.512;2023-09-19T10:59:13;18.90;99.90
60027;DHT22;45891;53.006;6.512;2023-09-19T11:01:49;19.00;99.90
60027;DHT22;45891;53.006;6.512;2023-09-19T11:07:06;19.10;99.90
60027;DHT22;45891;53.006;6.512;2023-09-19T11:15:03;18.70;99.90
60027;DHT22;45891;53.006;6.512;2023-09-19T11:17:43;18.50;99.90
60027;DHT22;45891;53.006;6.512;2023-09-19T11:20:19;18.30;99.90
60027;DHT22;45891;53.006;6.512;2023-09-19T11:30:42;18.70;99.90
60027;DHT22;45891;53.006;6.512;2023-09-19T11:33:29;18.80;99.90
60027;DHT22;45891;53.006;6.512;2023-09-19T11:36:11;18.80;99.90
60027;DHT22;45891;53.006;6.512;2023-09-19T11:43:53;18.90;99.90
60027;DHT22;45891;53.006;6.512;2023-09-19T11:46:22;19.20;99.90
60027;DHT22;45891;53.006;6.512;2023-09-19T11:48:49;19.20;99.90
60027;DHT22;45891;53.006;6.512;2023-09-19T11:51:18;19.20;99.90
60027;DHT22;45891;53.006;6.512;2023-09-19T11:53:56;18.90;99.90
60027;DHT22;45891;53.006;6.512;2023-09-19T11:56:26;18.90;99.90
60027;DHT22;45891;53.006;6.512;2023-09-19T11:58:57;18.70;99.90
60027;DHT22;45891;53.006;6.512;2023-09-19T12:01:27;18.60;99.90
60027;DHT22;45891;53.006;6.512;2023-09-19T12:03:56;18.60;99.90
60027;DHT22;45891;53.006;6.512;2023-09-19T12:06:26;18.50;99.90
60027;DHT22;45891;53.006;6.512;2023-09-19T12:08:53;18.50;99.90
60027;DHT22;45891;53.006;6.512;2023-09-19T12:11:30;18.60;99.90
60027;DHT22;45891;53.006;6.512;2023-09-19T12:14:00;18.40;99.90
60027;DHT22;45891;53.006;6.512;2023-09-19T12:16:27;18.30;99.90
60027;DHT22;45891;53.006;6.512;2023-09-19T12:18:57;18.20;99.90
60027;DHT22;45891;53.006;6.512;2023-09-19T12:21:30;18.20;99.90
60027;DHT22;45891;53.006;6.512;2023-09-19T12:26:37;18.10;99.90
60027;DHT22;45891;53.006;6.512;2023-09-19T12:29:05;18.10;99.90
60027;DHT22;45891;53.006;6.512;2023-09-19T12:31:31;18.00;99.90
60027;DHT22;45891;53.006;6.512;2023-09-19T12:34:02;18.10;99.90
60027;DHT22;45891;53.006;6.512;2023-09-19T12:36:28;18.30;99.90
60027;DHT22;45891;53.006;6.512;2023-09-19T12:38:56;18.40;99.90
60027;DHT22;45891;53.006;6.512;2023-09-19T12:41:25;18.60;99.90
60027;DHT22;45891;53.006;6.512;2023-09-19T12:43:53;18.60;99.90
60027;DHT22;45891;53.006;6.512;2023-09-19T12:46:23;18.70;99.90
60027;DHT22;45891;53.006;6.512;2023-09-19T12:49:18;18.80;99.90
60027;DHT22;45891;53.006;6.512;2023-09-19T12:51:46;18.70;99.90
60027;DHT22;45891;53.006;6.512;2023-09-19T12:54:13;18.70;99.90
60027;DHT22;45891;53.006;6.512;2023-09-19T12:56:46;18.60;99.90
60027;DHT22;45891;53.006;6.512;2023-09-19T12:59:15;18.40;99.90
60027;DHT22;45891;53.006;6.512;2023-09-19T13:01:42;18.40;99.90
60027;DHT22;45891;53.006;6.512;2023-09-19T13:06:46;18.30;99.90
60027;DHT22;45891;53.006;6.512;2023-09-19T13:09:18;18.30;99.90
60027;DHT22;45891;53.006;6.512;2023-09-19T13:11:46;18.30;99.90
60027;DHT22;45891;53.006;6.512;2023-09-19T13:17:02;18.40;99.90
60027;DHT22;45891;53.006;6.512;2023-09-19T13:19:45;18.30;99.90
60027;DHT22;45891;53.006;6.512;2023-09-19T13:22:41;18.40;99.90
60027;DHT22;45891;53.006;6.512;2023-09-19T13:25:10;18.40;99.90
60027;DHT22;45891;53.006;6.512;2023-09-19T13:27:57;18.40;99.90
60027;DHT22;45891;53.006;6.512;2023-09-19T13:30:26;18.30;99.90
60027;DHT22;45891;53.006;6.512;2023-09-19T13:33:03;18.20;99.90
60027;DHT22;45891;53.006;6.512;2023-09-19T13:35:29;18.20;99.90
60027;DHT22;45891;53.006;6.512;2023-09-19T13:37:55;18.20;99.90
60027;DHT22;45891;53.006;6.512;2023-09-19T13:40:22;18.20;99.90
60027;DHT22;45891;53.006;6.512;2023-09-19T13:42:48;18.20;99.90
60027;DHT22;45891;53.006;6.512;2023-09-19T13:45:14;18.20;99.90
60027;DHT22;45891;53.006;6.512;2023-09-19T13:47:43;18.20;99.90
60027;DHT22;45891;53.006;6.512;2023-09-19T13:50:09;17.80;99.90
60027;DHT22;45891;53.006;6.512;2023-09-19T13:52:35;17.50;99.90
60027;DHT22;45891;53.006;6.512;2023-09-19T13:55:02;17.40;99.90
60027;DHT22;45891;53.006;6.512;2023-09-19T13:57:28;17.40;99.90
60027;DHT22;45891;53.006;6.512;2023-09-19T13:59:55;17.70;99.90
60027;DHT22;45891;53.006;6.512;2023-09-19T14:02:22;17.90;99.90
60027;DHT22;45891;53.006;6.512;2023-09-19T14:04:51;18.00;99.90
60027;DHT22;45891;53.006;6.512;2023-09-19T14:07:18;18.10;99.90
60027;DHT22;45891;53.006;6.512;2023-09-19T14:09:46;18.20;99.90
60027;DHT22;45891;53.006;6.512;2023-09-19T14:12:12;18.20;99.90
60027;DHT22;45891;53.006;6.512;2023-09-19T14:14:38;18.20;99.90
60027;DHT22;45891;53.006;6.512;2023-09-19T14:17:05;18.20;99.90
60027;DHT22;45891;53.006;6.512;2023-09-19T14:19:33;18.20;99.90
60027;DHT22;45891;53.006;6.512;2023-09-19T14:21:59;18.20;99.90
60027;DHT22;45891;53.006;6.512;2023-09-19T14:24:27;18.30;99.90
60027;DHT22;45891;53.006;6.512;2023-09-19T14:26:54;18.30;99.90
60027;DHT22;45891;53.006;6.512;2023-09-19T14:29:20;18.40;99.90
60027;DHT22;45891;53.006;6.512;2023-09-19T14:31:46;18.50;99.90
60027;DHT22;45891;53.006;6.512;2023-09-19T14:34:12;18.50;99.90
60027;DHT22;45891;53.006;6.512;2023-09-19T14:36:38;18.50;99.90
60027;DHT22;45891;53.006;6.512;2023-09-19T14:39:05;18.50;99.90
60027;DHT22;45891;53.006;6.512;2023-09-19T14:41:31;18.50;99.90
60027;DHT22;45891;53.006;6.512;2023-09-19T14:43:57;18.40;99.90
60027;DHT22;45891;53.006;6.512;2023-09-19T14:46:24;18.40;99.90
60027;DHT22;45891;53.006;6.512;2023-09-19T14:48:53;18.40;99.90
60027;DHT22;45891;53.006;6.512;2023-09-19T14:51:19;18.40;99.90
60027;DHT22;45891;53.006;6.512;2023-09-19T14:53:46;18.40;99.90
60027;DHT22;45891;53.006;6.512;2023-09-19T14:56:13;18.40;99.90
60027;DHT22;45891;53.006;6.512;2023-09-19T14:58:44;18.30;99.90
60027;DHT22;45891;53.006;6.512;2023-09-19T15:01:11;18.40;99.90
60027;DHT22;45891;53.006;6.512;2023-09-19T15:03:41;18.30;99.90
60027;DHT22;45891;53.006;6.512;2023-09-19T15:06:10;18.20;99.90
60027;DHT22;45891;53.006;6.512;2023-09-19T15:08:41;18.10;99.90
60027;DHT22;45891;53.006;6.512;2023-09-19T15:11:12;18.10;99.90
60027;DHT22;45891;53.006;6.512;2023-09-19T15:13:39;18.10;99.90
60027;DHT22;45891;53.006;6.512;2023-09-19T15:16:06;18.10;99.90
60027;DHT22;45891;53.006;6.512;2023-09-19T15:18:40;17.90;99.90
60027;DHT22;45891;53.006;6.512;2023-09-19T15:21:12;17.60;99.90
60027;DHT22;45891;53.006;6.512;2023-09-19T15:23:39;17.40;99.90
60027;DHT22;45891;53.006;6.512;2023-09-19T15:26:11;17.20;99.90
60027;DHT22;45891;53.006;6.512;2023-09-19T15:28:38;17.20;99.90
60027;DHT22;45891;53.006;6.512;2023-09-19T15:31:10;17.20;99.90
60027;DHT22;45891;53.006;6.512;2023-09-19T15:33:37;17.30;99.90
60027;DHT22;45891;53.006;6.512;2023-09-19T15:36:05;17.40;99.90
60027;DHT22;45891;53.006;6.512;2023-09-19T15:41:13;17.30;99.90
60027;DHT22;45891;53.006;6.512;2023-09-19T15:43:39;17.30;99.90
60027;DHT22;45891;53.006;6.512;2023-09-19T15:46:05;17.20;99.90
60027;DHT22;45891;53.006;6.512;2023-09-19T15:48:32;17.10;99.90
60027;DHT22;45891;53.006;6.512;2023-09-19T15:51:03;17.10;99.90
60027;DHT22;45891;53.006;6.512;2023-09-19T15:53:44;17.00;99.90
60027;DHT22;45891;53.006;6.512;2023-09-19T15:56:11;16.90;99.90
60027;DHT22;45891;53.006;6.512;2023-09-19T15:58:41;16.90;99.90
60027;DHT22;45891;53.006;6.512;2023-09-19T16:01:09;17.00;99.90
60027;DHT22;45891;53.006;6.512;2023-09-19T16:03:42;17.00;99.90
60027;DHT22;45891;53.006;6.512;2023-09-19T16:06:16;17.00;99.90
60027;DHT22;45891;53.006;6.512;2023-09-19T16:08:47;17.00;99.90
60027;DHT22;45891;53.006;6.512;2023-09-19T16:11:14;17.00;99.90
60027;DHT22;45891;53.006;6.512;2023-09-19T16:13:42;16.90;99.90
60027;DHT22;45891;53.006;6.512;2023-09-19T16:16:09;16.70;99.90
60027;DHT22;45891;53.006;6.512;2023-09-19T16:18:40;16.60;99.90
60027;DHT22;45891;53.006;6.512;2023-09-19T16:21:10;16.40;99.90
60027;DHT22;45891;53.006;6.512;2023-09-19T16:23:37;16.30;99.90
60027;DHT22;45891;53.006;6.512;2023-09-19T16:26:08;16.30;99.90
60027;DHT22;45891;53.006;6.512;2023-09-19T16:28:37;16.20;99.90
60027;DHT22;45891;53.006;6.512;2023-09-19T16:31:04;16.10;99.90
60027;DHT22;45891;53.006;6.512;2023-09-19T16:33:35;16.00;99.90
60027;DHT22;45891;53.006;6.512;2023-09-19T16:36:07;16.00;99.90
60027;DHT22;45891;53.006;6.512;2023-09-19T16:38:33;15.90;99.90
60027;DHT22;45891;53.006;6.512;2023-09-19T16:41:00;15.90;99.90
60027;DHT22;45891;53.006;6.512;2023-09-19T16:43:27;15.90;99.90